| time (UTC) | temp F | wind direction | speed knots | gust knots | rain 1hr in | rain 24hr in | rain mn in | humidity % | barometer mb |
| 20260508070503 | 52 | 154 | 0.0 | 1.7 | 0.00 | 0.00 | 0.00 | 86 | 1016.9 |
| 20260508070005 | 52 | 156 | 0.0 | 0.9 | 0.00 | 0.00 | 0.00 | 87 | 1016.8 |
| 20260508065503 | 52 | 163 | 0.0 | 0.9 | 0.00 | 0.00 | 0.00 | 88 | 1016.8 |
| 20260508065003 | 51 | 0 | 0.0 | 0.0 | 0.00 | 0.00 | 0.00 | 89 | 1016.8 |
| 20260508064717 | 51 | 0 | 0.0 | 0.0 | 0.00 | 0.00 | 0.00 | 89 | 1016.7 |
| 20260508064003 | 51 | 112 | 0.0 | 3.5 | 0.00 | 0.00 | 0.00 | 89 | 1016.6 |
| 20260508063504 | 51 | 109 | 0.9 | 3.5 | 0.00 | 0.00 | 0.00 | 89 | 1016.5 |
| 20260508063003 | 50 | 126 | 0.0 | 2.6 | 0.00 | 0.00 | 0.00 | 89 | 1016.5 |
| 20260508062504 | 50 | 130 | 0.9 | 2.6 | 0.00 | 0.00 | 0.00 | 89 | 1016.5 |
| 20260508062004 | 50 | 133 | 0.9 | 2.6 | 0.00 | 0.00 | 0.00 | 89 | 1016.5 |
| 20260508061714 | 50 | 133 | 0.9 | 2.6 | 0.00 | 0.00 | 0.00 | 89 | 1016.5 |
| 20260508061004 | 50 | 136 | 0.9 | 3.5 | 0.00 | 0.00 | 0.00 | 89 | 1016.4 |
| 20260508060505 | 50 | 139 | 0.9 | 3.5 | 0.00 | 0.00 | 0.00 | 89 | 1016.4 |
| 20260508060003 | 50 | 146 | 0.0 | 1.7 | 0.00 | 0.00 | 0.00 | 90 | 1016.3 |
| 20260508055503 | 50 | 149 | 0.9 | 3.5 | 0.00 | 0.00 | 0.00 | 90 | 1016.3 |
| 20260508055214 | 49 | 145 | 0.9 | 4.3 | 0.00 | 0.00 | 0.00 | 90 | 1016.3 |
| 20260508054503 | 49 | 150 | 0.0 | 4.3 | 0.00 | 0.00 | 0.00 | 90 | 1016.3 |
| 20260508053504 | 49 | 139 | 0.0 | 1.7 | 0.00 | 0.00 | 0.00 | 90 | 1016.2 |
| 20260508053004 | 49 | 133 | 0.0 | 1.7 | 0.00 | 0.00 | 0.00 | 90 | 1016.1 |
| 20260508052504 | 49 | 142 | 0.0 | 2.6 | 0.00 | 0.00 | 0.00 | 90 | 1016.1 |
| 20260508052004 | 49 | 129 | 0.9 | 2.6 | 0.00 | 0.00 | 0.00 | 90 | 1016.1 |
| 20260508051715 | 49 | 127 | 0.0 | 2.6 | 0.00 | 0.00 | 0.00 | 90 | 1016.0 |
| 20260508051213 | 49 | 144 | 0.0 | 1.7 | 0.00 | 0.00 | 0.00 | 90 | 1016.1 |
| 20260508050503 | 49 | 148 | 0.0 | 0.9 | 0.00 | 0.00 | 0.00 | 90 | 1016.0 |
| 20260508050003 | 49 | 0 | 0.0 | 0.0 | 0.00 | 0.00 | 0.00 | 90 | 1016.0 |
| 20260508045504 | 49 | 136 | 0.0 | 0.9 | 0.00 | 0.00 | 0.00 | 89 | 1015.9 |
| 20260508045003 | 49 | 140 | 0.0 | 1.7 | 0.00 | 0.00 | 0.00 | 89 | 1015.8 |
| 20260508044503 | 49 | 116 | 0.9 | 2.6 | 0.00 | 0.00 | 0.00 | 89 | 1015.9 |
| 20260508044004 | 49 | 108 | 0.0 | 2.6 | 0.00 | 0.00 | 0.00 | 89 | 1015.8 |
| 20260508043714 | 49 | 110 | 0.0 | 2.6 | 0.00 | 0.00 | 0.00 | 89 | 1015.8 |
| 20260508043003 | 49 | 124 | 0.0 | 2.6 | 0.00 | 0.00 | 0.00 | 89 | 1015.8 |
| 20260508042715 | 49 | 128 | 0.9 | 2.6 | 0.00 | 0.00 | 0.00 | 89 | 1015.8 |
| 20260508042003 | 49 | 141 | 0.0 | 3.5 | 0.00 | 0.00 | 0.00 | 89 | 1015.8 |
| 20260508041504 | 49 | 147 | 0.0 | 1.7 | 0.00 | 0.00 | 0.00 | 89 | 1015.8 |
| 20260508041214 | 49 | 143 | 0.0 | 0.9 | 0.00 | 0.00 | 0.00 | 89 | 1015.7 |
| 20260508040504 | 49 | 142 | 0.0 | 1.7 | 0.00 | 0.00 | 0.00 | 88 | 1015.8 |
| 20260508040005 | 49 | 134 | 0.0 | 1.7 | 0.00 | 0.00 | 0.00 | 88 | 1015.7 |
| 20260508035503 | 49 | 127 | 0.9 | 2.6 | 0.00 | 0.00 | 0.00 | 88 | 1015.8 |
| 20260508035003 | 49 | 128 | 0.9 | 2.6 | 0.00 | 0.00 | 0.00 | 88 | 1015.8 |
| 20260508034504 | 49 | 137 | 0.9 | 3.5 | 0.00 | 0.00 | 0.00 | 88 | 1015.8 |
| 20260508034004 | 49 | 138 | 0.9 | 3.5 | 0.00 | 0.00 | 0.00 | 88 | 1015.9 |
| 20260508033504 | 49 | 137 | 0.0 | 3.5 | 0.00 | 0.00 | 0.00 | 88 | 1015.8 |
| 20260508033217 | 49 | 134 | 0.0 | 1.7 | 0.00 | 0.00 | 0.00 | 88 | 1015.8 |
| 20260508032504 | 49 | 138 | 0.0 | 0.9 | 0.00 | 0.00 | 0.00 | 88 | 1015.8 |
| 20260508032004 | 49 | 134 | 0.0 | 0.9 | 0.00 | 0.00 | 0.00 | 87 | 1015.8 |
| 20260508031504 | 49 | 154 | 0.0 | 0.9 | 0.00 | 0.00 | 0.00 | 87 | 1015.9 |
| 20260508031003 | 49 | 129 | 0.0 | 1.7 | 0.00 | 0.00 | 0.00 | 87 | 1015.8 |
| 20260508030503 | 49 | 123 | 0.0 | 1.7 | 0.00 | 0.00 | 0.00 | 87 | 1015.8 |
| 20260508030003 | 49 | 131 | 0.0 | 0.9 | 0.00 | 0.00 | 0.00 | 87 | 1015.8 |
| 20260508025718 | 49 | 138 | 0.0 | 1.7 | 0.00 | 0.00 | 0.00 | 87 | 1015.7 |
| 20260508025216 | 49 | 138 | 0.0 | 1.7 | 0.00 | 0.00 | 0.00 | 87 | 1015.7 |
| 20260508024503 | 49 | 128 | 0.0 | 1.7 | 0.00 | 0.00 | 0.00 | 86 | 1015.8 |
| 20260508024003 | 49 | 128 | 0.0 | 1.7 | 0.00 | 0.00 | 0.00 | 86 | 1015.8 |
| 20260508023503 | 49 | 0 | 0.0 | 0.0 | 0.00 | 0.00 | 0.00 | 86 | 1015.8 |
| 20260508023213 | 49 | 0 | 0.0 | 0.0 | 0.00 | 0.00 | 0.00 | 86 | 1015.8 |
| 20260508022504 | 50 | 0 | 0.0 | 0.0 | 0.00 | 0.00 | 0.00 | 86 | 1015.8 |
| 20260508022004 | 50 | 162 | 0.0 | 1.7 | 0.00 | 0.00 | 0.00 | 86 | 1015.7 |
| 20260508021504 | 50 | 162 | 0.0 | 1.7 | 0.00 | 0.00 | 0.00 | 86 | 1015.7 |
| 20260508021004 | 50 | 153 | 0.0 | 2.6 | 0.00 | 0.00 | 0.00 | 85 | 1015.7 |
| 20260508020504 | 50 | 137 | 0.0 | 3.5 | 0.00 | 0.00 | 0.00 | 85 | 1015.7 |
| 20260508020216 | 50 | 137 | 0.9 | 3.5 | 0.00 | 0.00 | 0.00 | 85 | 1015.7 |
| 20260508015714 | 50 | 141 | 0.9 | 2.6 | 0.00 | 0.00 | 0.00 | 85 | 1015.7 |
| 20260508015004 | 50 | 139 | 0.9 | 2.6 | 0.00 | 0.00 | 0.00 | 85 | 1015.6 |
| 20260508014504 | 50 | 134 | 0.0 | 2.6 | 0.00 | 0.00 | 0.00 | 85 | 1015.6 |
| 20260508014004 | 50 | 137 | 0.9 | 3.5 | 0.00 | 0.00 | 0.00 | 85 | 1015.6 |
| 20260508013503 | 50 | 134 | 0.9 | 3.5 | 0.00 | 0.00 | 0.00 | 84 | 1015.6 |
| 20260508013003 | 50 | 131 | 0.9 | 3.5 | 0.00 | 0.00 | 0.00 | 84 | 1015.5 |
| 20260508012717 | 50 | 137 | 0.9 | 3.5 | 0.00 | 0.00 | 0.00 | 84 | 1015.6 |
| 20260508012003 | 50 | 137 | 0.0 | 2.6 | 0.00 | 0.00 | 0.00 | 84 | 1015.6 |
| 20260508011503 | 50 | 128 | 0.9 | 2.6 | 0.00 | 0.00 | 0.00 | 84 | 1015.6 |
| 20260508011216 | 50 | 130 | 0.9 | 2.6 | 0.00 | 0.00 | 0.00 | 84 | 1015.7 |
| 20260508010503 | 50 | 133 | 0.9 | 3.5 | 0.00 | 0.00 | 0.00 | 83 | 1015.7 |
| 20260508010004 | 50 | 129 | 0.9 | 3.5 | 0.00 | 0.00 | 0.00 | 83 | 1015.7 |
| 20260508005504 | 50 | 0 | 0.0 | 0.0 | 0.00 | 0.00 | 0.00 | 82 | 1015.7 |
| 20260508005218 | 50 | 0 | 0.0 | 0.0 | 0.00 | 0.00 | 0.00 | 82 | 1015.6 |
| 20260508004503 | 50 | 117 | 0.9 | 1.7 | 0.00 | 0.00 | 0.00 | 82 | 1015.7 |
| 20260508004003 | 50 | 112 | 0.9 | 2.6 | 0.00 | 0.00 | 0.00 | 82 | 1015.7 |
| 20260508003503 | 50 | 116 | 0.9 | 2.6 | 0.00 | 0.00 | 0.00 | 82 | 1015.7 |
| 20260508003003 | 50 | 122 | 0.0 | 2.6 | 0.00 | 0.00 | 0.00 | 81 | 1015.8 |
| 20260508002503 | 51 | 129 | 0.0 | 2.6 | 0.00 | 0.00 | 0.00 | 81 | 1015.8 |
| 20260508002003 | 51 | 134 | 0.9 | 4.3 | 0.00 | 0.00 | 0.00 | 81 | 1015.9 |
| 20260508001503 | 51 | 137 | 0.9 | 4.3 | 0.00 | 0.00 | 0.00 | 81 | 1015.9 |
| 20260508001003 | 51 | 139 | 0.9 | 3.5 | 0.00 | 0.00 | 0.00 | 81 | 1015.9 |
| 20260508000504 | 51 | 118 | 0.0 | 1.7 | 0.00 | 0.00 | 0.00 | 80 | 1015.9 |
| 20260508000004 | 51 | 190 | 0.0 | 2.6 | 0.00 | 0.00 | 0.00 | 80 | 1015.9 |
| 20260507235504 | 51 | 191 | 0.0 | 2.6 | 0.00 | 0.00 | 0.00 | 80 | 1015.9 |
| 20260507235004 | 51 | 198 | 0.0 | 1.7 | 0.00 | 0.00 | 0.00 | 80 | 1015.9 |
| 20260507234716 | 51 | 176 | 0.0 | 2.6 | 0.00 | 0.00 | 0.00 | 80 | 1015.9 |
| 20260507234003 | 51 | 156 | 1.7 | 4.3 | 0.00 | 0.00 | 0.00 | 79 | 1015.9 |
| 20260507233503 | 51 | 149 | 1.7 | 6.1 | 0.00 | 0.00 | 0.00 | 79 | 1015.9 |
| 20260507233215 | 51 | 146 | 1.7 | 6.1 | 0.00 | 0.00 | 0.00 | 79 | 1015.9 |
| 20260507232503 | 51 | 141 | 1.7 | 5.2 | 0.00 | 0.00 | 0.00 | 79 | 1015.8 |
| 20260507232003 | 52 | 142 | 1.7 | 4.3 | 0.00 | 0.00 | 0.00 | 79 | 1015.9 |
| 20260507231714 | 52 | 142 | 1.7 | 3.5 | 0.00 | 0.00 | 0.00 | 78 | 1015.9 |
| 20260507231004 | 52 | 143 | 1.7 | 6.1 | 0.00 | 0.00 | 0.00 | 78 | 1015.9 |
| 20260507230503 | 52 | 153 | 1.7 | 7.0 | 0.00 | 0.00 | 0.00 | 78 | 1015.8 |
| 20260507230006 | 52 | 153 | 1.7 | 7.0 | 0.00 | 0.00 | 0.00 | 78 | 1015.8 |
| 20260507225504 | 52 | 140 | 1.7 | 5.2 | 0.00 | 0.00 | 0.00 | 78 | 1015.9 |
| 20260507225003 | 52 | 145 | 1.7 | 5.2 | 0.00 | 0.00 | 0.00 | 77 | 1015.9 |
| 20260507224503 | 52 | 157 | 1.7 | 6.1 | 0.00 | 0.00 | 0.00 | 77 | 1015.9 |
| 20260507224003 | 52 | 152 | 1.7 | 6.1 | 0.00 | 0.00 | 0.00 | 77 | 1015.9 |
| 20260507223718 | 52 | 151 | 1.7 | 6.1 | 0.00 | 0.00 | 0.00 | 77 | 1015.9 |
| 20260507223003 | 52 | 156 | 2.6 | 7.8 | 0.00 | 0.00 | 0.00 | 76 | 1015.9 |
| 20260507222504 | 52 | 159 | 3.5 | 7.8 | 0.00 | 0.00 | 0.00 | 76 | 1015.9 |
| 20260507222003 | 52 | 160 | 3.5 | 7.8 | 0.00 | 0.00 | 0.00 | 76 | 1015.9 |
| 20260507221503 | 53 | 161 | 3.5 | 7.8 | 0.00 | 0.00 | 0.00 | 75 | 1015.9 |
| 20260507221003 | 53 | 162 | 2.6 | 7.8 | 0.00 | 0.00 | 0.00 | 75 | 1015.8 |
| 20260507220715 | 53 | 161 | 2.6 | 7.8 | 0.00 | 0.00 | 0.00 | 75 | 1015.9 |
| 20260507220003 | 53 | 158 | 3.5 | 8.7 | 0.00 | 0.00 | 0.00 | 74 | 1015.9 |
| 20260507215716 | 53 | 157 | 3.5 | 8.7 | 0.00 | 0.00 | 0.00 | 74 | 1015.9 |
| 20260507215004 | 53 | 155 | 2.6 | 8.7 | 0.00 | 0.00 | 0.00 | 74 | 1015.9 |
| 20260507214504 | 53 | 160 | 2.6 | 7.0 | 0.00 | 0.00 | 0.00 | 73 | 1015.9 |
| 20260507214003 | 53 | 164 | 2.6 | 6.1 | 0.00 | 0.00 | 0.00 | 73 | 1015.9 |
| 20260507213713 | 53 | 158 | 2.6 | 6.1 | 0.00 | 0.00 | 0.00 | 73 | 1015.9 |
| 20260507213003 | 53 | 146 | 2.6 | 7.0 | 0.00 | 0.00 | 0.00 | 72 | 1015.9 |
| 20260507212503 | 53 | 135 | 3.5 | 7.8 | 0.00 | 0.00 | 0.00 | 72 | 1015.8 |
| 20260507212003 | 53 | 132 | 2.6 | 7.8 | 0.00 | 0.00 | 0.00 | 71 | 1015.7 |
| 20260507211715 | 53 | 131 | 2.6 | 7.8 | 0.00 | 0.00 | 0.00 | 71 | 1015.7 |
| 20260507211004 | 54 | 129 | 2.6 | 8.7 | 0.00 | 0.00 | 0.00 | 71 | 1015.7 |
| 20260507210503 | 54 | 133 | 2.6 | 7.8 | 0.00 | 0.00 | 0.00 | 70 | 1015.6 |
| 20260507210003 | 54 | 130 | 2.6 | 7.0 | 0.00 | 0.00 | 0.00 | 70 | 1015.6 |
| 20260507205504 | 54 | 124 | 2.6 | 7.0 | 0.00 | 0.00 | 0.00 | 70 | 1015.6 |
| 20260507205003 | 54 | 124 | 2.6 | 6.1 | 0.00 | 0.00 | 0.00 | 70 | 1015.5 |
| 20260507204505 | 54 | 126 | 1.7 | 6.1 | 0.00 | 0.00 | 0.00 | 70 | 1015.5 |
| 20260507204003 | 54 | 123 | 1.7 | 6.1 | 0.00 | 0.00 | 0.00 | 70 | 1015.5 |
| 20260507203504 | 54 | 120 | 1.7 | 6.1 | 0.00 | 0.00 | 0.00 | 70 | 1015.5 |
| 20260507203003 | 54 | 127 | 1.7 | 6.1 | 0.00 | 0.00 | 0.00 | 69 | 1015.5 |
| 20260507202503 | 54 | 130 | 0.9 | 5.2 | 0.00 | 0.00 | 0.00 | 69 | 1015.4 |
| 20260507202009 | 54 | 132 | 1.7 | 5.2 | 0.00 | 0.00 | 0.00 | 68 | 1015.4 |
| 20260507201503 | 54 | 133 | 2.6 | 7.8 | 0.00 | 0.00 | 0.00 | 68 | 1015.4 |
| 20260507201004 | 54 | 135 | 1.7 | 7.8 | 0.00 | 0.00 | 0.00 | 68 | 1015.4 |
| 20260507200504 | 55 | 139 | 0.9 | 4.3 | 0.00 | 0.00 | 0.00 | 68 | 1015.3 |
| 20260507200003 | 55 | 135 | 0.9 | 4.3 | 0.00 | 0.00 | 0.00 | 68 | 1015.3 |
| 20260507195503 | 55 | 133 | 1.7 | 6.1 | 0.00 | 0.00 | 0.00 | 67 | 1015.2 |
| 20260507195004 | 55 | 132 | 2.6 | 6.1 | 0.00 | 0.00 | 0.00 | 67 | 1015.2 |
| 20260507194503 | 55 | 133 | 2.6 | 7.0 | 0.00 | 0.00 | 0.00 | 66 | 1015.1 |
| 20260507194004 | 55 | 136 | 2.6 | 7.0 | 0.00 | 0.00 | 0.00 | 66 | 1015.1 |
| 20260507193504 | 55 | 136 | 2.6 | 7.0 | 0.00 | 0.00 | 0.00 | 65 | 1015.0 |
| 20260507193003 | 56 | 131 | 1.7 | 8.7 | 0.00 | 0.00 | 0.00 | 65 | 1015.0 |
| 20260507192503 | 56 | 133 | 2.6 | 8.7 | 0.00 | 0.00 | 0.00 | 65 | 1015.0 |
| 20260507192003 | 56 | 136 | 2.6 | 7.0 | 0.00 | 0.00 | 0.00 | 65 | 1015.0 |
| 20260507191503 | 56 | 140 | 1.7 | 7.0 | 0.00 | 0.00 | 0.00 | 64 | 1015.0 |
| 20260507191003 | 56 | 141 | 2.6 | 7.8 | 0.00 | 0.00 | 0.00 | 64 | 1015.0 |
| 20260507190717 | 56 | 135 | 2.6 | 7.8 | 0.00 | 0.00 | 0.00 | 63 | 1015.0 |
| 20260507190005 | 56 | 128 | 2.6 | 7.0 | 0.00 | 0.00 | 0.00 | 63 | 1015.0 |
| 20260507185503 | 57 | 132 | 2.6 | 8.7 | 0.00 | 0.00 | 0.00 | 63 | 1015.0 |
| 20260507185216 | 57 | 135 | 2.6 | 8.7 | 0.00 | 0.00 | 0.00 | 63 | 1015.0 |
| 20260507184504 | 57 | 128 | 3.5 | 8.7 | 0.00 | 0.00 | 0.00 | 62 | 1014.8 |
| 20260507184003 | 57 | 129 | 2.6 | 8.7 | 0.00 | 0.00 | 0.00 | 61 | 1014.7 |
| 20260507183504 | 57 | 132 | 2.6 | 7.8 | 0.00 | 0.00 | 0.00 | 61 | 1014.7 |
| 20260507183003 | 57 | 141 | 2.6 | 8.7 | 0.00 | 0.00 | 0.00 | 60 | 1014.7 |
| 20260507182504 | 57 | 147 | 3.5 | 8.7 | 0.00 | 0.00 | 0.00 | 59 | 1014.8 |
| 20260507182214 | 57 | 145 | 3.5 | 7.8 | 0.00 | 0.00 | 0.00 | 58 | 1014.8 |
| 20260507181717 | 58 | 144 | 3.5 | 8.7 | 0.00 | 0.00 | 0.00 | 57 | 1014.7 |
| 20260507181215 | 58 | 143 | 3.5 | 8.7 | 0.00 | 0.00 | 0.00 | 57 | 1014.6 |
| 20260507180713 | 58 | 144 | 4.3 | 9.6 | 0.00 | 0.00 | 0.00 | 57 | 1014.6 |
| 20260507180004 | 58 | 155 | 3.5 | 8.7 | 0.00 | 0.00 | 0.00 | 57 | 1014.6 |
| 20260507175504 | 58 | 156 | 2.6 | 8.7 | 0.00 | 0.00 | 0.00 | 56 | 1014.6 |
| 20260507175004 | 58 | 154 | 3.5 | 9.6 | 0.00 | 0.00 | 0.00 | 57 | 1014.6 |
| 20260507174503 | 58 | 153 | 3.5 | 9.6 | 0.00 | 0.00 | 0.00 | 57 | 1014.6 |
| 20260507174004 | 58 | 158 | 3.5 | 7.8 | 0.00 | 0.00 | 0.00 | 56 | 1014.6 |
| 20260507173503 | 59 | 155 | 2.6 | 7.8 | 0.00 | 0.00 | 0.00 | 56 | 1014.6 |
| 20260507173005 | 59 | 138 | 3.5 | 8.7 | 0.00 | 0.00 | 0.00 | 56 | 1014.6 |
| 20260507172503 | 59 | 128 | 3.5 | 8.7 | 0.00 | 0.00 | 0.00 | 55 | 1014.6 |
| 20260507172003 | 59 | 116 | 3.5 | 8.7 | 0.00 | 0.00 | 0.00 | 55 | 1014.5 |
| 20260507171504 | 60 | 109 | 3.5 | 8.7 | 0.00 | 0.00 | 0.00 | 55 | 1014.5 |
| 20260507171004 | 60 | 107 | 4.3 | 8.7 | 0.00 | 0.00 | 0.00 | 56 | 1014.6 |
| 20260507170713 | 60 | 104 | 4.3 | 8.7 | 0.00 | 0.00 | 0.00 | 55 | 1014.6 |
| 20260507170003 | 60 | 106 | 3.5 | 8.7 | 0.00 | 0.00 | 0.00 | 53 | 1014.6 |
| 20260507165503 | 61 | 112 | 2.6 | 7.8 | 0.00 | 0.00 | 0.00 | 54 | 1014.6 |
| 20260507165004 | 61 | 113 | 2.6 | 7.8 | 0.00 | 0.00 | 0.00 | 53 | 1014.6 |
| 20260507164715 | 61 | 107 | 2.6 | 7.8 | 0.00 | 0.00 | 0.00 | 52 | 1014.6 |
| 20260507164003 | 61 | 99 | 4.3 | 8.7 | 0.00 | 0.00 | 0.00 | 53 | 1014.5 |
| 20260507163503 | 61 | 116 | 3.5 | 8.7 | 0.00 | 0.00 | 0.00 | 54 | 1014.5 |
| 20260507163003 | 61 | 121 | 3.5 | 9.6 | 0.00 | 0.00 | 0.00 | 54 | 1014.6 |
| 20260507162504 | 61 | 124 | 2.6 | 9.6 | 0.00 | 0.00 | 0.00 | 54 | 1014.7 |
| 20260507162003 | 61 | 124 | 2.6 | 7.0 | 0.00 | 0.00 | 0.00 | 53 | 1014.7 |
| 20260507161504 | 61 | 110 | 3.5 | 7.8 | 0.00 | 0.00 | 0.00 | 53 | 1014.7 |
| 20260507161003 | 61 | 106 | 3.5 | 8.7 | 0.00 | 0.00 | 0.00 | 56 | 1014.7 |
| 20260507160504 | 60 | 113 | 2.6 | 8.7 | 0.00 | 0.00 | 0.00 | 55 | 1014.7 |
| 20260507160004 | 60 | 139 | 3.5 | 7.0 | 0.00 | 0.00 | 0.00 | 54 | 1014.7 |
| 20260507155503 | 60 | 167 | 2.6 | 6.1 | 0.00 | 0.00 | 0.00 | 55 | 1014.8 |
| 20260507155003 | 60 | 160 | 2.6 | 6.1 | 0.00 | 0.00 | 0.00 | 54 | 1014.8 |
| 20260507154716 | 60 | 153 | 1.7 | 5.2 | 0.00 | 0.00 | 0.00 | 54 | 1014.9 |
| 20260507154214 | 60 | 166 | 2.6 | 6.1 | 0.00 | 0.00 | 0.00 | 55 | 1015.0 |
| 20260507153717 | 60 | 158 | 3.5 | 7.8 | 0.00 | 0.00 | 0.00 | 54 | 1015.0 |
| 20260507153003 | 61 | 158 | 2.6 | 7.0 | 0.00 | 0.00 | 0.00 | 53 | 1015.0 |
| 20260507152504 | 61 | 146 | 2.6 | 6.1 | 0.00 | 0.00 | 0.00 | 54 | 1015.1 |
| 20260507152004 | 60 | 133 | 2.6 | 6.1 | 0.00 | 0.00 | 0.00 | 54 | 1015.1 |
| 20260507151503 | 60 | 150 | 3.5 | 7.8 | 0.00 | 0.00 | 0.00 | 54 | 1015.1 |
| 20260507151003 | 60 | 159 | 3.5 | 7.8 | 0.00 | 0.00 | 0.00 | 53 | 1015.2 |
| 20260507150503 | 60 | 164 | 2.6 | 7.8 | 0.00 | 0.00 | 0.00 | 53 | 1015.1 |
| 20260507150218 | 60 | 165 | 2.6 | 7.8 | 0.00 | 0.00 | 0.00 | 54 | 1015.2 |
| 20260507145504 | 60 | 164 | 3.5 | 7.0 | 0.00 | 0.00 | 0.00 | 54 | 1015.1 |
| 20260507145003 | 60 | 151 | 3.5 | 6.1 | 0.00 | 0.00 | 0.00 | 54 | 1015.1 |
| 20260507144504 | 60 | 135 | 2.6 | 6.1 | 0.00 | 0.00 | 0.00 | 54 | 1015.2 |
| 20260507144003 | 60 | 153 | 1.7 | 6.1 | 0.00 | 0.00 | 0.00 | 55 | 1015.1 |
| 20260507143503 | 59 | 158 | 2.6 | 6.1 | 0.00 | 0.00 | 0.00 | 54 | 1015.2 |
| 20260507143004 | 59 | 139 | 2.6 | 6.1 | 0.00 | 0.00 | 0.00 | 53 | 1015.2 |
| 20260507142504 | 60 | 138 | 2.6 | 6.1 | 0.00 | 0.00 | 0.00 | 53 | 1015.2 |
| 20260507142003 | 59 | 156 | 2.6 | 7.8 | 0.00 | 0.00 | 0.00 | 54 | 1015.3 |
| 20260507141503 | 59 | 164 | 2.6 | 7.8 | 0.00 | 0.00 | 0.00 | 53 | 1015.3 |
| 20260507141004 | 59 | 163 | 3.5 | 7.8 | 0.00 | 0.00 | 0.00 | 54 | 1015.4 |
| 20260507140503 | 59 | 160 | 2.6 | 7.8 | 0.00 | 0.00 | 0.00 | 54 | 1015.4 |
| 20260507140005 | 59 | 153 | 2.6 | 7.0 | 0.00 | 0.00 | 0.00 | 55 | 1015.4 |
| 20260507135716 | 59 | 160 | 2.6 | 6.1 | 0.00 | 0.00 | 0.00 | 55 | 1015.4 |
| 20260507135214 | 59 | 156 | 3.5 | 6.1 | 0.00 | 0.00 | 0.00 | 55 | 1015.5 |
| 20260507134503 | 60 | 146 | 4.3 | 7.8 | 0.00 | 0.00 | 0.00 | 54 | 1015.5 |
| 20260507134215 | 60 | 154 | 3.5 | 7.8 | 0.00 | 0.00 | 0.00 | 54 | 1015.5 |
| 20260507133503 | 60 | 165 | 2.6 | 8.7 | 0.00 | 0.00 | 0.00 | 53 | 1015.6 |
| 20260507133004 | 60 | 163 | 3.5 | 8.7 | 0.00 | 0.00 | 0.00 | 53 | 1015.6 |
| 20260507132503 | 60 | 162 | 3.5 | 8.7 | 0.00 | 0.00 | 0.00 | 54 | 1015.6 |
| 20260507132003 | 61 | 160 | 3.5 | 8.7 | 0.00 | 0.00 | 0.00 | 51 | 1015.6 |
| 20260507131504 | 61 | 151 | 3.5 | 8.7 | 0.00 | 0.00 | 0.00 | 52 | 1015.5 |
| 20260507131003 | 62 | 134 | 2.6 | 7.0 | 0.00 | 0.00 | 0.00 | 49 | 1015.5 |
| 20260507130504 | 62 | 159 | 3.5 | 7.8 | 0.00 | 0.00 | 0.00 | 50 | 1015.5 |
| 20260507130214 | 63 | 170 | 3.5 | 8.7 | 0.00 | 0.00 | 0.00 | 50 | 1015.5 |
| 20260507125504 | 63 | 164 | 4.3 | 8.7 | 0.00 | 0.00 | 0.00 | 49 | 1015.5 |
| 20260507125004 | 64 | 164 | 4.3 | 7.8 | 0.00 | 0.00 | 0.00 | 49 | 1015.6 |
| 20260507124503 | 64 | 156 | 3.5 | 7.8 | 0.00 | 0.00 | 0.00 | 49 | 1015.5 |
| 20260507124003 | 64 | 158 | 3.5 | 7.0 | 0.00 | 0.00 | 0.00 | 52 | 1015.6 |
| 20260507123503 | 63 | 167 | 3.5 | 8.7 | 0.00 | 0.00 | 0.00 | 52 | 1015.5 |
| 20260507123003 | 64 | 178 | 4.3 | 11.3 | 0.00 | 0.00 | 0.00 | 47 | 1015.6 |
| 20260507122504 | 64 | 185 | 4.3 | 11.3 | 0.00 | 0.00 | 0.00 | 50 | 1015.7 |
| 20260507122004 | 64 | 181 | 2.6 | 8.7 | 0.00 | 0.00 | 0.00 | 51 | 1015.6 |
| 20260507121503 | 64 | 188 | 2.6 | 8.7 | 0.00 | 0.00 | 0.00 | 51 | 1015.6 |
| 20260507121003 | 63 | 192 | 4.3 | 10.4 | 0.00 | 0.00 | 0.00 | 53 | 1015.7 |
| 20260507120504 | 63 | 196 | 4.3 | 10.4 | 0.00 | 0.00 | 0.00 | 51 | 1015.8 |
| 20260507120003 | 63 | 201 | 2.6 | 10.4 | 0.00 | 0.00 | 0.00 | 51 | 1015.8 |
| 20260507115503 | 62 | 182 | 1.7 | 6.1 | 0.00 | 0.00 | 0.00 | 59 | 1015.9 |
| 20260507115004 | 62 | 179 | 0.9 | 7.0 | 0.00 | 0.00 | 0.00 | 55 | 1015.9 |
| 20260507114714 | 62 | 192 | 2.6 | 7.8 | 0.00 | 0.00 | 0.00 | 55 | 1015.9 |
| 20260507114003 | 61 | 189 | 3.5 | 7.8 | 0.00 | 0.00 | 0.00 | 55 | 1015.9 |
| 20260507113714 | 60 | 180 | 2.6 | 7.8 | 0.00 | 0.00 | 0.00 | 56 | 1015.9 |
| 20260507113004 | 60 | 173 | 3.5 | 7.8 | 0.00 | 0.00 | 0.00 | 55 | 1015.9 |
| 20260507112503 | 60 | 166 | 3.5 | 7.8 | 0.00 | 0.00 | 0.00 | 55 | 1016.0 |
| 20260507112003 | 61 | 152 | 1.7 | 7.8 | 0.00 | 0.00 | 0.00 | 56 | 1016.0 |
| 20260507111506 | 61 | 171 | 2.6 | 8.7 | 0.00 | 0.00 | 0.00 | 56 | 1015.9 |
| 20260507111004 | 61 | 181 | 4.3 | 8.7 | 0.00 | 0.00 | 0.00 | 55 | 1016.1 |
| 20260507110504 | 61 | 189 | 4.3 | 9.6 | 0.00 | 0.00 | 0.00 | 54 | 1016.1 |
| 20260507110005 | 61 | 190 | 3.5 | 9.6 | 0.00 | 0.00 | 0.00 | 57 | 1016.1 |
| 20260507105504 | 60 | 194 | 2.6 | 7.8 | 0.00 | 0.00 | 0.00 | 57 | 1016.2 |
| 20260507105003 | 60 | 196 | 2.6 | 7.8 | 0.00 | 0.00 | 0.00 | 59 | 1016.2 |
| 20260507104504 | 60 | 168 | 3.5 | 7.8 | 0.00 | 0.00 | 0.00 | 59 | 1016.2 |
| 20260507104003 | 60 | 149 | 3.5 | 8.7 | 0.00 | 0.00 | 0.00 | 60 | 1016.3 |
| 20260507103715 | 59 | 150 | 3.5 | 8.7 | 0.00 | 0.00 | 0.00 | 59 | 1016.3 |
| 20260507103003 | 58 | 183 | 1.7 | 7.0 | 0.00 | 0.00 | 0.00 | 64 | 1016.3 |
| 20260507101503 | 57 | 193 | 5.2 | 9.6 | 0.00 | 0.00 | 0.00 | 67 | 1016.3 |
| 20260507101003 | 57 | 187 | 4.3 | 9.6 | 0.00 | 0.00 | 0.00 | 65 | 1016.4 |
| 20260507100504 | 58 | 164 | 3.5 | 8.7 | 0.00 | 0.00 | 0.00 | 61 | 1016.4 |
| 20260507100216 | 59 | 159 | 3.5 | 8.7 | 0.00 | 0.00 | 0.00 | 63 | 1016.4 |
| 20260507095503 | 58 | 168 | 2.6 | 7.0 | 0.00 | 0.00 | 0.00 | 68 | 1016.3 |
| 20260507095003 | 57 | 163 | 3.5 | 7.8 | 0.00 | 0.00 | 0.00 | 66 | 1016.4 |
| 20260507094504 | 57 | 162 | 3.5 | 7.8 | 0.00 | 0.00 | 0.00 | 67 | 1016.4 |
| 20260507094213 | 57 | 168 | 3.5 | 6.1 | 0.00 | 0.00 | 0.00 | 67 | 1016.5 |
| 20260507093504 | 56 | 172 | 2.6 | 7.0 | 0.00 | 0.00 | 0.00 | 67 | 1016.5 |
| 20260507093004 | 57 | 160 | 3.5 | 7.0 | 0.00 | 0.00 | 0.00 | 67 | 1016.5 |
| 20260507092503 | 57 | 172 | 3.5 | 7.0 | 0.00 | 0.00 | 0.00 | 68 | 1016.5 |
| 20260507092004 | 56 | 184 | 3.5 | 7.0 | 0.00 | 0.00 | 0.00 | 70 | 1016.5 |
| 20260507091503 | 56 | 181 | 3.5 | 7.8 | 0.00 | 0.00 | 0.00 | 68 | 1016.5 |
| 20260507091007 | 56 | 188 | 2.6 | 7.8 | 0.00 | 0.00 | 0.00 | 67 | 1016.5 |
| 20260507090504 | 56 | 211 | 0.9 | 7.0 | 0.00 | 0.00 | 0.00 | 71 | 1016.5 |
| 20260507090216 | 56 | 203 | 0.9 | 4.3 | 0.00 | 0.00 | 0.00 | 71 | 1016.5 |
| 20260507085003 | 55 | 211 | 1.7 | 6.1 | 0.00 | 0.00 | 0.00 | 73 | 1016.6 |
| 20260507084504 | 55 | 177 | 1.7 | 6.1 | 0.00 | 0.00 | 0.00 | 72 | 1016.5 |
| 20260507084003 | 55 | 171 | 1.7 | 5.2 | 0.00 | 0.00 | 0.00 | 70 | 1016.5 |
| 20260507083503 | 56 | 189 | 0.9 | 4.3 | 0.00 | 0.00 | 0.00 | 70 | 1016.5 |
| 20260507083004 | 56 | 205 | 0.9 | 5.2 | 0.00 | 0.00 | 0.00 | 71 | 1016.6 |
| 20260507082504 | 56 | 203 | 0.9 | 5.2 | 0.00 | 0.00 | 0.00 | 70 | 1016.6 |
| 20260507082004 | 56 | 201 | 0.9 | 4.3 | 0.00 | 0.00 | 0.00 | 70 | 1016.6 |
| 20260507081504 | 56 | 216 | 0.9 | 3.5 | 0.00 | 0.00 | 0.00 | 71 | 1016.6 |
| 20260507081003 | 56 | 215 | 0.0 | 3.5 | 0.00 | 0.00 | 0.00 | 71 | 1016.6 |
| 20260507080503 | 56 | 222 | 0.0 | 1.7 | 0.00 | 0.00 | 0.00 | 73 | 1016.6 |
| 20260507080005 | 55 | 0 | 0.0 | 0.0 | 0.00 | 0.00 | 0.00 | 74 | 1016.6 |
| 20260507075503 | 55 | 0 | 0.0 | 0.0 | 0.00 | 0.00 | 0.00 | 75 | 1016.6 |
| 20260507075003 | 54 | 0 | 0.0 | 0.0 | 0.00 | 0.00 | 0.00 | 76 | 1016.6 |
| 20260507074513 | 54 | 0 | 0.0 | 0.0 | 0.00 | 0.00 | 0.00 | 76 | 1016.6 |
| 20260507074214 | 53 | 0 | 0.0 | 0.0 | 0.00 | 0.00 | 0.00 | 77 | 1016.6 |
| 20260507073504 | 52 | 0 | 0.0 | 0.0 | 0.00 | 0.00 | 0.00 | 78 | 1016.5 |
| 20260507073004 | 52 | 0 | 0.0 | 0.0 | 0.00 | 0.00 | 0.00 | 80 | 1016.5 |
| 20260507072713 | 51 | 0 | 0.0 | 0.0 | 0.00 | 0.00 | 0.00 | 82 | 1016.5 |
| 20260507072004 | 49 | 0 | 0.0 | 0.0 | 0.00 | 0.00 | 0.00 | 84 | 1016.5 |
| 20260507071714 | 49 | 0 | 0.0 | 0.0 | 0.00 | 0.00 | 0.00 | 85 | 1016.4 |
| 20260507071003 | 48 | 0 | 0.0 | 0.0 | 0.00 | 0.00 | 0.00 | 89 | 1016.4 |
| 20260507070715 | 47 | 0 | 0.0 | 0.0 | 0.00 | 0.00 | 0.00 | 91 | 1016.4 |